Time;durP1;ratioP1;P1;durP2;ratioP2;P2;SDS_P1;SDS_P2;PMS_P1;PMS_P2;Temp;Humidity;BMP_temperature;BMP_pressure;BME280_temperature;BME280_humidity;BME280_pressure;Samples;Min_cycle;Max_cycle;Signal;HPM_P1;HPM_P2
2022/07/03 04:02:08;;;;;;;6.38;5.68;;;15.00;99.90;;;;;;6262541;22;20389;-83
2022/07/03 04:04:33;;;;;;;8.48;6.45;;;15.00;99.90;;;;;;6257815;22;20016;-85
2022/07/03 04:06:59;;;;;;;7.95;5.38;;;14.90;99.90;;;;;;6283856;22;20078;-83
2022/07/03 04:09:25;;;;;;;7.78;5.85;;;14.90;99.90;;;;;;6284935;22;20058;-83
2022/07/03 04:11:50;;;;;;;9.73;6.63;;;14.90;99.90;;;;;;6257608;22;20042;-82
2022/07/03 04:14:16;;;;;;;8.95;5.93;;;14.80;99.90;;;;;;6259267;22;20023;-87
2022/07/03 04:16:42;;;;;;;8.77;6.40;;;14.80;99.90;;;;;;6284459;22;20436;-82
2022/07/03 04:19:07;;;;;;;8.88;7.05;;;14.70;99.90;;;;;;6258515;22;20016;-82
2022/07/03 04:21:33;;;;;;;7.90;6.57;;;14.80;99.90;;;;;;6232719;22;20063;-83
2022/07/03 04:23:59;;;;;;;8.60;7.40;;;14.80;99.90;;;;;;6257849;22;20459;-86
2022/07/03 04:26:24;;;;;;;8.00;6.28;;;14.80;99.90;;;;;;6285364;22;20015;-84
2022/07/03 04:28:50;;;;;;;9.95;7.20;;;14.80;99.90;;;;;;6284848;22;20452;-83
2022/07/03 04:31:15;;;;;;;8.70;7.05;;;14.80;99.90;;;;;;6285669;22;20008;-86
2022/07/03 04:33:41;;;;;;;8.05;6.78;;;14.80;99.90;;;;;;6259793;22;20026;-87
2022/07/03 04:36:07;;;;;;;8.43;7.53;;;14.90;99.90;;;;;;6234499;22;20019;-83
2022/07/03 04:38:32;;;;;;;10.88;7.38;;;14.90;99.90;;;;;;6259952;22;20090;-84
2022/07/03 04:40:58;;;;;;;11.90;7.22;;;14.90;99.90;;;;;;6257760;22;20058;-83
2022/07/03 04:43:24;;;;;;;8.93;7.40;;;14.90;99.90;;;;;;6284197;22;20012;-85
2022/07/03 04:45:49;;;;;;;10.50;7.60;;;15.00;99.90;;;;;;6256928;22;20023;-86
2022/07/03 04:48:15;;;;;;;8.00;7.20;;;15.00;99.90;;;;;;6256152;22;20008;-79
2022/07/03 04:50:40;;;;;;;8.00;6.85;;;15.00;99.90;;;;;;6255916;22;20014;-83
2022/07/03 04:53:06;;;;;;;9.00;6.97;;;15.00;99.90;;;;;;6283722;22;20007;-84
2022/07/03 04:55:32;;;;;;;9.60;7.43;;;15.10;99.90;;;;;;6256517;22;20449;-82
2022/07/03 04:57:57;;;;;;;10.05;7.30;;;15.10;99.90;;;;;;6232912;22;20016;-85
2022/07/03 05:00:23;;;;;;;9.20;7.00;;;15.20;99.90;;;;;;6256125;22;20025;-83
2022/07/03 05:02:49;;;;;;;9.25;7.20;;;15.30;99.90;;;;;;6232995;22;20007;-85
2022/07/03 05:05:14;;;;;;;9.23;7.20;;;15.40;99.90;;;;;;6232420;22;20016;-83
2022/07/03 05:07:40;;;;;;;8.55;7.07;;;15.40;99.90;;;;;;6257729;22;20441;-82
2022/07/03 05:10:07;;;;;;;8.13;6.82;;;15.50;99.90;;;;;;6261937;22;20027;-82
2022/07/03 05:12:32;;;;;;;8.90;6.78;;;15.50;99.90;;;;;;6264090;22;20008;-81
2022/07/03 05:14:58;;;;;;;8.18;6.60;;;15.60;99.90;;;;;;6265680;22;20060;-82
2022/07/03 05:17:23;;;;;;;8.98;5.70;;;15.70;99.90;;;;;;6296439;22;20016;-80
2022/07/03 05:20:23;;;;;;;6.95;5.57;;;15.80;99.90;;;;;;6247917;22;20043;-80
2022/07/03 05:22:35;;;;;;;7.43;5.20;;;15.90;99.90;;;;;;6300321;22;20054;-79
2022/07/03 05:25:00;;;;;;;9.02;5.05;;;16.10;99.90;;;;;;6299243;22;20020;-83
2022/07/03 05:27:26;;;;;;;5.97;4.32;;;16.20;99.90;;;;;;6244418;22;20018;-85
2022/07/03 05:29:51;;;;;;;4.85;3.72;;;16.30;99.90;;;;;;6233612;22;20057;-82
2022/07/03 05:32:17;;;;;;;7.57;3.38;;;16.40;99.90;;;;;;6258752;22;20008;-86
2022/07/03 05:34:43;;;;;;;7.10;3.47;;;16.40;99.90;;;;;;6284733;22;20011;-81
2022/07/03 05:37:08;;;;;;;5.68;3.20;;;16.60;99.90;;;;;;6283250;22;20011;-84
2022/07/03 05:39:34;;;;;;;7.03;3.40;;;16.70;99.90;;;;;;6256144;22;20019;-84
2022/07/03 05:42:00;;;;;;;5.13;3.10;;;16.80;99.90;;;;;;6283191;22;20076;-84
2022/07/03 05:44:26;;;;;;;5.75;3.20;;;16.90;99.90;;;;;;6256572;22;20087;-82
2022/07/03 05:46:51;;;;;;;5.55;3.28;;;17.10;99.90;;;;;;6256051;22;20014;-85
2022/07/03 05:49:17;;;;;;;5.10;3.00;;;17.20;99.90;;;;;;6283434;22;20018;-84
2022/07/03 05:51:43;;;;;;;5.85;3.30;;;17.30;99.90;;;;;;6284118;22;20015;-85
2022/07/03 05:54:09;;;;;;;9.55;4.22;;;17.40;99.90;;;;;;6230730;22;20015;-85
2022/07/03 05:56:35;;;;;;;6.57;3.95;;;17.40;99.90;;;;;;6256486;22;20099;-82
2022/07/03 05:59:00;;;;;;;6.32;3.80;;;17.40;99.90;;;;;;6255477;22;20011;-83
2022/07/03 06:01:26;;;;;;;7.72;4.03;;;17.40;99.90;;;;;;6281939;22;20047;-86
2022/07/03 06:03:51;;;;;;;7.90;4.22;;;17.40;99.90;;;;;;6255931;22;20033;-83
2022/07/03 06:06:17;;;;;;;6.95;4.10;;;17.40;99.90;;;;;;6255787;22;20023;-86
2022/07/03 06:08:43;;;;;;;8.23;4.38;;;17.40;99.90;;;;;;6256658;22;20011;-84
2022/07/03 06:11:08;;;;;;;7.32;3.80;;;17.40;99.90;;;;;;6256280;22;20047;-82
2022/07/03 06:13:34;;;;;;;7.53;4.05;;;17.50;99.90;;;;;;6257004;22;20087;-88
2022/07/03 06:16:00;;;;;;;9.70;4.35;;;17.50;99.90;;;;;;6256667;22;20085;-84
2022/07/03 06:18:25;;;;;;;8.32;4.50;;;17.60;99.90;;;;;;6284685;22;20087;-82
2022/07/03 06:20:51;;;;;;;8.25;4.72;;;17.60;99.90;;;;;;6256228;22;20011;-82
2022/07/03 06:23:17;;;;;;;6.90;3.72;;;17.70;99.90;;;;;;6282900;22;20388;-85
2022/07/03 06:25:43;;;;;;;7.57;3.88;;;17.80;99.90;;;;;;6230252;22;20023;-84
2022/07/03 06:28:08;;;;;;;7.30;4.20;;;17.80;99.90;;;;;;6256078;22;20369;-84
2022/07/03 06:30:34;;;;;;;7.43;3.20;;;17.80;99.90;;;;;;6256466;22;20437;-84
2022/07/03 06:32:59;;;;;;;5.13;3.10;;;17.90;99.90;;;;;;6257241;22;20065;-85
2022/07/03 06:35:25;;;;;;;6.75;2.97;;;18.00;99.90;;;;;;6256699;22;20376;-82
2022/07/03 06:37:51;;;;;;;4.93;2.70;;;17.90;99.90;;;;;;6230369;22;20385;-84
2022/07/03 06:40:18;;;;;;;4.38;2.65;;;18.00;99.90;;;;;;6255220;22;20323;-82
2022/07/03 06:42:44;;;;;;;5.15;2.60;;;18.00;99.90;;;;;;6256906;22;20012;-81
2022/07/03 06:45:10;;;;;;;4.57;2.28;;;18.00;99.90;;;;;;6258945;22;20058;-82
2022/07/03 06:47:39;;;;;;;4.57;2.55;;;18.10;99.90;;;;;;6287972;22;20019;-85
2022/07/03 06:50:06;;;;;;;4.95;2.38;;;18.10;99.90;;;;;;6286373;22;20429;-81
2022/07/03 06:52:32;;;;;;;3.47;2.13;;;18.10;99.90;;;;;;6285052;22;20402;-83
2022/07/03 06:54:57;;;;;;;3.88;2.08;;;18.20;99.90;;;;;;6285798;22;20084;-81
2022/07/03 06:57:23;;;;;;;5.47;1.75;;;18.20;99.90;;;;;;6234150;22;20039;-83
2022/07/03 06:59:49;;;;;;;5.03;1.35;;;18.30;99.90;;;;;;6286539;22;20016;-83
2022/07/03 07:02:15;;;;;;;6.78;1.42;;;18.30;99.90;;;;;;6278165;22;20040;-83
2022/07/03 07:04:41;;;;;;;5.53;1.33;;;18.30;99.90;;;;;;6259443;22;20045;-79
2022/07/03 07:07:07;;;;;;;8.07;1.55;;;18.30;99.90;;;;;;6284739;22;20015;-82
2022/07/03 07:09:32;;;;;;;4.07;1.58;;;18.30;99.90;;;;;;6283275;22;20007;-84
2022/07/03 07:11:58;;;;;;;7.32;1.63;;;18.40;99.90;;;;;;6285211;22;20018;-85
2022/07/03 07:14:24;;;;;;;3.88;1.77;;;18.50;99.90;;;;;;6285480;22;20090;-84
2022/07/03 07:16:50;;;;;;;3.80;1.00;;;18.60;99.90;;;;;;6285089;22;20326;-83
2022/07/03 07:19:15;;;;;;;3.03;1.58;;;18.50;99.90;;;;;;6282126;22;20019;-83
2022/07/03 07:21:41;;;;;;;4.50;1.38;;;18.60;99.90;;;;;;6283603;22;20019;-84
2022/07/03 07:24:07;;;;;;;4.13;1.63;;;18.60;99.90;;;;;;6288607;22;20015;-85
2022/07/03 07:26:32;;;;;;;6.30;1.75;;;18.70;99.90;;;;;;6286250;22;20022;-83
2022/07/03 07:28:58;;;;;;;5.85;1.40;;;18.80;99.90;;;;;;6286581;22;20015;-84
2022/07/03 07:31:25;;;;;;;4.32;1.20;;;18.90;99.90;;;;;;6286748;22;20026;-85
2022/07/03 07:33:50;;;;;;;3.58;1.20;;;18.90;99.90;;;;;;6258972;22;20050;-84
2022/07/03 07:36:16;;;;;;;4.45;1.23;;;19.00;99.90;;;;;;6286262;22;20007;-85
2022/07/03 07:38:42;;;;;;;4.50;0.93;;;19.00;99.90;;;;;;6284394;22;20046;-85
2022/07/03 07:41:09;;;;;;;2.53;0.70;;;19.00;99.90;;;;;;6282807;22;20015;-83
2022/07/03 07:43:34;;;;;;;3.45;0.73;;;19.00;99.90;;;;;;6284115;22;20019;-86
2022/07/03 07:46:00;;;;;;;3.15;0.70;;;19.00;99.90;;;;;;6282916;22;20012;-85
2022/07/03 07:48:25;;;;;;;3.63;0.63;;;19.00;99.90;;;;;;6285960;22;20020;-82
2022/07/03 07:50:51;;;;;;;3.60;1.23;;;19.10;99.90;;;;;;6282779;22;20012;-83
2022/07/03 07:53:17;;;;;;;2.83;0.60;;;19.10;99.90;;;;;;6283501;22;20008;-83
2022/07/03 07:55:43;;;;;;;2.28;0.70;;;19.20;99.90;;;;;;6286943;22;20007;-82
2022/07/03 07:58:09;;;;;;;3.53;0.90;;;19.20;99.90;;;;;;6283901;22;20015;-83
2022/07/03 08:00:35;;;;;;;3.17;1.13;;;19.30;99.90;;;;;;6260356;22;20012;-86
2022/07/03 08:05:44;;;;;;;5.10;0.82;;;19.40;99.90;;;;;;6285614;22;20460;-83
2022/07/03 08:08:14;;;;;;;1.83;0.70;;;19.40;99.90;;;;;;6259776;22;20020;-85
2022/07/03 08:10:48;;;;;;;4.15;1.00;;;19.40;99.90;;;;;;6257689;22;20008;-87
2022/07/03 08:13:16;;;;;;;1.95;0.68;;;19.50;99.90;;;;;;6232320;22;20011;-84
2022/07/03 08:15:42;;;;;;;2.58;0.80;;;19.50;99.90;;;;;;6256999;22;20019;-85
2022/07/03 08:18:08;;;;;;;3.90;0.80;;;19.60;99.90;;;;;;6257075;22;20091;-86
2022/07/03 08:20:35;;;;;;;2.85;1.20;;;19.70;99.90;;;;;;6284444;22;20384;-84
2022/07/03 08:23:00;;;;;;;2.40;0.98;;;19.70;99.90;;;;;;6231355;22;20015;-84
2022/07/03 08:25:27;;;;;;;2.65;0.93;;;19.70;99.90;;;;;;6232221;22;20022;-86
2022/07/03 08:27:53;;;;;;;2.50;0.90;;;19.80;99.90;;;;;;6284423;22;20018;-84
2022/07/03 08:30:19;;;;;;;2.15;1.10;;;19.90;99.90;;;;;;6257797;22;20003;-86
2022/07/03 08:32:47;;;;;;;2.80;1.00;;;19.90;99.90;;;;;;6258631;22;20467;-84
2022/07/03 08:35:13;;;;;;;1.88;0.73;;;20.00;99.90;;;;;;6231801;22;20015;-85
2022/07/03 08:37:43;;;;;;;4.45;1.30;;;20.00;99.90;;;;;;6285677;22;20314;-84
2022/07/03 08:40:10;;;;;;;4.55;0.90;;;20.10;99.90;;;;;;6283725;22;20012;-83
2022/07/03 08:42:55;;;;;;;3.10;0.98;;;20.20;99.90;;;;;;6257392;22;20075;-84
2022/07/03 08:45:23;;;;;;;3.85;1.00;;;20.30;99.90;;;;;;6282165;22;20007;-83
2022/07/03 08:47:52;;;;;;;3.08;1.20;;;20.30;99.90;;;;;;6255175;22;20436;-87
2022/07/03 08:50:19;;;;;;;2.60;0.77;;;20.40;99.90;;;;;;6254956;22;20022;-86
2022/07/03 08:52:46;;;;;;;3.28;1.20;;;20.40;99.90;;;;;;6254214;22;20315;-84
2022/07/03 08:55:16;;;;;;;3.20;1.13;;;20.50;99.90;;;;;;6230937;22;20362;-85
2022/07/03 08:57:43;;;;;;;4.75;0.80;;;20.50;99.90;;;;;;6254632;22;20353;-85
2022/07/03 09:00:13;;;;;;;3.75;1.25;;;20.60;99.90;;;;;;6281805;22;20012;-86
2022/07/03 09:02:47;;;;;;;2.65;1.00;;;20.70;99.90;;;;;;6283230;22;20019;-85
2022/07/03 09:05:14;;;;;;;6.03;1.15;;;20.80;99.90;;;;;;6254493;22;20019;-82
2022/07/03 09:07:42;;;;;;;6.15;1.20;;;20.80;99.90;;;;;;6231419;22;20018;-84
2022/07/03 09:10:10;;;;;;;3.25;1.13;;;20.90;99.90;;;;;;6256739;22;20008;-85
2022/07/03 09:12:46;;;;;;;;;;;;;;;;;;;;;
2022/07/03 09:15:12;;;;;;;7.40;1.48;;;21.10;99.90;;;;;;6283902;22;20504;-87
2022/07/03 09:17:39;;;;;;;2.58;0.95;;;21.20;99.90;;;;;;6256092;22;20020;-83
2022/07/03 09:20:06;;;;;;;2.20;0.90;;;21.40;99.90;;;;;;6256717;22;20020;-85
2022/07/03 09:22:34;;;;;;;2.63;0.80;;;21.40;99.90;;;;;;6257715;22;20456;-88
2022/07/03 09:25:16;;;;;;;3.75;0.93;;;21.40;99.90;;;;;;6257083;22;20047;-80
2022/07/03 09:27:52;;;;;;;4.90;1.20;;;21.20;99.90;;;;;;6285153;22;20012;-84
2022/07/03 09:30:18;;;;;;;7.75;1.30;;;21.30;99.90;;;;;;6255250;22;20050;-82
2022/07/03 09:32:46;;;;;;;2.92;1.13;;;21.30;99.90;;;;;;6259133;22;20011;-87
2022/07/03 09:35:15;;;;;;;4.40;1.30;;;21.40;99.90;;;;;;6235925;22;20019;-86
2022/07/03 09:38:04;;;;;;;3.75;1.40;;;21.40;99.90;;;;;;6260587;22;20012;-86
2022/07/03 09:40:49;;;;;;;4.80;1.20;;;21.50;99.90;;;;;;6260043;22;20046;-83
2022/07/03 09:43:21;;;;;;;3.97;1.35;;;21.70;99.90;;;;;;6285843;22;20023;-85
2022/07/03 09:45:58;;;;;;;3.95;1.20;;;21.80;99.90;;;;;;6259358;22;20011;-86
2022/07/03 09:48:48;;;;;;;3.97;1.35;;;21.90;99.90;;;;;;6286964;22;20012;-87
2022/07/03 09:51:28;;;;;;;5.22;1.63;;;21.70;99.90;;;;;;6284761;22;20528;-81
2022/07/03 09:53:58;;;;;;;4.65;1.40;;;21.80;99.90;;;;;;6260322;22;20063;-88
2022/07/03 09:56:36;;;;;;;3.25;0.90;;;21.70;99.90;;;;;;6234457;22;20012;-86
2022/07/03 09:59:13;;;;;;;2.95;1.15;;;21.80;99.90;;;;;;6234853;22;20058;-85
2022/07/03 10:01:44;;;;;;;4.40;1.10;;;21.80;99.90;;;;;;6245828;22;20012;-83
2022/07/03 10:04:19;;;;;;;2.67;1.05;;;21.90;99.90;;;;;;6285698;22;20376;-84
2022/07/03 10:06:59;;;;;;;3.70;1.00;;;21.90;99.90;;;;;;6258189;22;20030;-87
2022/07/03 10:09:27;;;;;;;5.25;1.40;;;22.00;99.90;;;;;;6257880;22;20297;-82
2022/07/03 10:11:55;;;;;;;8.23;2.20;;;22.20;99.90;;;;;;6283354;22;20065;-86
2022/07/03 10:14:28;;;;;;;5.30;1.65;;;22.10;99.90;;;;;;6256543;22;20012;-86
2022/07/03 10:16:57;;;;;;;10.50;1.65;;;21.80;99.90;;;;;;6256238;22;20012;-81
2022/07/03 10:19:27;;;;;;;4.13;1.80;;;22.00;99.90;;;;;;6283563;22;20026;-82
2022/07/03 10:22:00;;;;;;;5.07;1.83;;;22.20;99.90;;;;;;6284519;22;20083;-86
2022/07/03 10:24:30;;;;;;;5.32;1.83;;;22.40;99.90;;;;;;6285782;22;20007;-87
2022/07/03 10:26:57;;;;;;;4.90;1.60;;;22.40;99.90;;;;;;6282471;22;20019;-84
2022/07/03 10:29:25;;;;;;;5.32;1.70;;;22.10;99.90;;;;;;6282649;22;20015;-86
2022/07/03 10:31:51;;;;;;;3.97;1.73;;;22.00;99.90;;;;;;6284609;22;20066;-87
2022/07/03 10:34:22;;;;;;;6.28;1.58;;;22.00;99.90;;;;;;6260946;22;20008;-85
2022/07/03 10:36:52;;;;;;;3.78;1.58;;;22.10;99.90;;;;;;6258854;22;20283;-86
2022/07/03 10:39:40;;;;;;;6.18;2.13;;;22.30;99.90;;;;;;6255798;22;20018;-83
2022/07/03 10:45:07;;;;;;;7.47;2.33;;;22.00;99.90;;;;;;6284046;22;20019;-84
2022/07/03 10:47:49;;;;;;;6.28;1.75;;;21.80;99.90;;;;;;6283763;22;20014;-87
2022/07/03 10:50:19;;;;;;;5.63;1.70;;;21.60;99.90;;;;;;6281793;22;20043;-85
2022/07/03 10:52:46;;;;;;;7.35;1.95;;;21.50;99.90;;;;;;6257065;22;20012;-83
2022/07/03 10:55:14;;;;;;;5.85;1.90;;;21.50;99.90;;;;;;6282229;22;20026;-85
2022/07/03 10:57:59;;;;;;;5.25;1.42;;;21.50;99.90;;;;;;6282101;22;20008;-82
2022/07/03 11:00:25;;;;;;;6.90;1.60;;;21.40;99.90;;;;;;6257014;22;20086;-84
2022/07/03 11:02:52;;;;;;;5.55;1.50;;;21.30;99.90;;;;;;6283845;22;20348;-82
2022/07/03 11:05:21;;;;;;;8.13;1.80;;;21.10;99.90;;;;;;6283631;22;20083;-84
2022/07/03 11:07:50;;;;;;;4.28;1.40;;;21.00;99.90;;;;;;6257061;22;20037;-83
2022/07/03 11:10:16;;;;;;;4.07;1.05;;;21.00;99.90;;;;;;6282324;22;20018;-84
2022/07/03 11:13:07;;;;;;;4.53;1.00;;;21.10;99.90;;;;;;6256281;22;20046;-86
2022/07/03 11:15:44;;;;;;;7.05;1.55;;;21.10;99.90;;;;;;6256674;22;20007;-85
2022/07/03 11:18:19;;;;;;;4.75;1.30;;;21.20;99.90;;;;;;6255678;22;20019;-86
2022/07/03 11:20:44;;;;;;;4.28;1.10;;;21.30;99.90;;;;;;6255519;22;20027;-85
2022/07/03 11:23:13;;;;;;;6.25;1.17;;;21.40;99.90;;;;;;6256786;22;20017;-84
2022/07/03 11:25:44;;;;;;;5.15;1.00;;;21.40;99.90;;;;;;6231173;22;20015;-84
2022/07/03 11:28:48;;;;;;;4.63;1.10;;;21.40;99.90;;;;;;6282288;22;20016;-84
2022/07/03 11:31:17;;;;;;;4.13;1.23;;;21.30;99.90;;;;;;6255849;22;20011;-86
2022/07/03 11:33:53;;;;;;;4.47;1.25;;;21.50;99.90;;;;;;6282499;22;20043;-83
2022/07/03 11:36:22;;;;;;;4.93;1.38;;;21.80;99.90;;;;;;6256320;22;20039;-84
2022/07/03 11:38:59;;;;;;;5.18;1.15;;;21.90;99.90;;;;;;6232558;22;20359;-85
2022/07/03 11:41:42;;;;;;;6.03;1.05;;;21.70;99.90;;;;;;6282664;22;20069;-84
2022/07/03 11:44:09;;;;;;;5.15;1.20;;;21.60;99.90;;;;;;6283435;22;20012;-84
2022/07/03 11:46:37;;;;;;;4.97;1.05;;;21.90;99.90;;;;;;6256102;22;20020;-80
2022/07/03 11:49:08;;;;;;;5.32;1.20;;;22.00;99.90;;;;;;6258032;22;20252;-86
2022/07/03 11:51:34;;;;;;;4.53;1.13;;;22.00;99.90;;;;;;6283571;22;20360;-86
2022/07/03 11:54:00;;;;;;;4.60;1.58;;;22.20;99.90;;;;;;6230730;22;20007;-85
2022/07/03 11:56:27;;;;;;;4.50;0.90;;;22.30;99.90;;;;;;6283751;22;20100;-88
2022/07/03 11:58:56;;;;;;;7.22;1.13;;;22.60;99.90;;;;;;6231382;22;20077;-86
2022/07/03 12:01:22;;;;;;;8.20;1.25;;;22.80;99.90;;;;;;6241039;22;20027;-89
2022/07/03 12:03:51;;;;;;;2.58;0.80;;;22.80;99.90;;;;;;6285200;22;20011;-89
2022/07/03 12:06:18;;;;;;;2.45;0.82;;;22.70;99.90;;;;;;6282424;22;20011;-86
2022/07/03 12:08:46;;;;;;;2.08;0.70;;;22.70;99.90;;;;;;6283457;22;20083;-88
2022/07/03 12:11:18;;;;;;;4.13;0.80;;;22.80;99.90;;;;;;6260763;22;20379;-86
2022/07/03 12:13:44;;;;;;;2.00;0.80;;;22.70;99.90;;;;;;6291785;22;20034;-82
2022/07/03 12:16:12;;;;;;;3.05;0.93;;;22.80;99.90;;;;;;6266289;22;20012;-87
2022/07/03 12:18:51;;;;;;;3.95;1.20;;;22.80;99.90;;;;;;6291427;22;20016;-85
2022/07/03 12:21:18;;;;;;;5.15;1.08;;;23.00;99.90;;;;;;6292426;22;20060;-86
2022/07/03 12:24:11;;;;;;;5.28;1.20;;;23.10;99.90;;;;;;6300791;22;20016;-86
2022/07/03 12:26:37;;;;;;;2.60;0.80;;;23.00;99.90;;;;;;6303968;22;20012;-84
2022/07/03 12:29:09;;;;;;;3.55;1.13;;;22.90;99.90;;;;;;6301777;22;20031;-81
2022/07/03 12:31:38;;;;;;;1.85;0.85;;;22.80;99.90;;;;;;6262805;22;20015;-83
2022/07/03 12:34:04;;;;;;;3.70;0.90;;;22.70;99.90;;;;;;6285452;22;20012;-87
2022/07/03 12:36:29;;;;;;;3.10;1.00;;;22.40;99.90;;;;;;6284224;22;20054;-87
2022/07/03 12:38:57;;;;;;;1.92;0.90;;;22.30;99.90;;;;;;6284534;22;20012;-88
2022/07/03 12:41:23;;;;;;;2.55;0.88;;;22.10;99.90;;;;;;6287092;22;20012;-86
2022/07/03 12:43:51;;;;;;;2.80;0.85;;;22.20;99.90;;;;;;6283697;22;20019;-85
2022/07/03 12:46:32;;;;;;;2.67;0.93;;;22.20;99.90;;;;;;6283429;22;20071;-83
2022/07/03 12:49:00;;;;;;;4.82;0.88;;;22.40;99.90;;;;;;6282038;22;20047;-85
2022/07/03 12:51:46;;;;;;;3.00;0.80;;;22.70;99.90;;;;;;6258422;22;20055;-85
2022/07/03 12:54:23;;;;;;;2.08;0.85;;;22.70;99.90;;;;;;6257823;22;20369;-84
2022/07/03 12:59:16;;;;;;;4.47;0.90;;;22.40;99.90;;;;;;6281738;22;20011;-86
2022/07/03 13:00:04;;;;;;;3.15;1.00;;;22.20;99.90;;;;;;6282799;22;20055;-86
2022/07/03 13:02:30;;;;;;;4.05;0.90;;;22.00;99.90;;;;;;6255846;22;20016;-84
2022/07/03 13:04:59;;;;;;;3.60;1.00;;;21.80;99.90;;;;;;6255918;22;20019;-85
2022/07/03 13:07:29;;;;;;;5.03;1.10;;;21.60;99.90;;;;;;6283132;22;20020;-85
2022/07/03 13:09:55;;;;;;;4.68;1.30;;;21.40;99.90;;;;;;6283966;22;20015;-86
2022/07/03 13:12:22;;;;;;;5.03;1.30;;;21.10;99.90;;;;;;6283174;22;20058;-86
2022/07/03 13:15:15;;;;;;;6.47;1.80;;;20.80;99.90;;;;;;6281881;22;20007;-86
2022/07/03 13:17:53;;;;;;;8.20;2.17;;;20.10;99.90;;;;;;6279195;22;20094;-87
2022/07/03 13:20:23;;;;;;;4.93;2.08;;;19.50;99.90;;;;;;6280187;22;20015;-83
2022/07/03 13:22:50;;;;;;;8.10;2.47;;;19.10;99.90;;;;;;6256557;22;20047;-82
2022/07/03 13:25:16;;;;;;;4.32;2.00;;;18.70;99.90;;;;;;6255123;22;20056;-85
2022/07/03 13:27:45;;;;;;;7.25;2.50;;;18.50;99.90;;;;;;6281475;22;20018;-85
2022/07/03 13:30:18;;;;;;;5.60;2.90;;;18.30;99.90;;;;;;6281732;22;20050;-84
2022/07/03 13:32:44;;;;;;;4.35;2.40;;;18.40;99.90;;;;;;6280412;22;20061;-86
2022/07/03 13:35:11;;;;;;;8.32;2.90;;;18.40;99.90;;;;;;6283111;22;20018;-83
2022/07/03 13:37:37;;;;;;;5.55;2.63;;;18.50;99.90;;;;;;6282432;22;20012;-86
2022/07/03 13:40:04;;;;;;;5.15;2.13;;;18.60;99.90;;;;;;6281917;22;20014;-84
2022/07/03 13:42:30;;;;;;;4.63;2.35;;;18.70;99.90;;;;;;6280675;22;20015;-80
2022/07/03 13:44:55;;;;;;;5.10;2.65;;;18.70;99.90;;;;;;6256201;22;20026;-85
2022/07/03 13:47:21;;;;;;;5.55;2.67;;;18.80;99.90;;;;;;6255598;22;20015;-86
2022/07/03 13:49:48;;;;;;;4.57;2.95;;;18.80;99.90;;;;;;6283176;22;20023;-85
2022/07/03 13:52:13;;;;;;;6.63;2.90;;;18.90;99.90;;;;;;6282944;22;20012;-84
2022/07/03 13:54:39;;;;;;;4.57;3.20;;;19.00;99.90;;;;;;6285090;22;20008;-86
2022/07/03 13:57:05;;;;;;;5.20;3.80;;;19.00;99.90;;;;;;6282898;22;20453;-83
2022/07/03 13:59:31;;;;;;;6.60;3.63;;;19.00;99.90;;;;;;6282001;22;20046;-84
2022/07/03 14:02:00;;;;;;;4.65;2.45;;;18.90;99.90;;;;;;6283453;22;20031;-86
2022/07/03 14:04:26;;;;;;;6.85;2.70;;;18.80;99.90;;;;;;6256380;22;20130;-84
2022/07/03 14:06:53;;;;;;;4.25;2.35;;;18.80;99.90;;;;;;6231116;22;20484;-86
2022/07/03 14:09:19;;;;;;;5.38;2.95;;;18.70;99.90;;;;;;6283381;22;20038;-83
2022/07/03 14:11:44;;;;;;;3.92;1.90;;;18.70;99.90;;;;;;6255608;22;20020;-86
2022/07/03 14:14:10;;;;;;;2.22;1.30;;;18.70;99.90;;;;;;6284783;22;20035;-84
2022/07/03 14:16:36;;;;;;;2.33;1.30;;;18.80;99.90;;;;;;6257883;22;20383;-84
2022/07/03 14:19:05;;;;;;;3.20;1.20;;;18.80;99.90;;;;;;6256658;22;20063;-82
2022/07/03 14:21:32;;;;;;;2.58;1.42;;;18.80;99.90;;;;;;6285444;22;20045;-82
2022/07/03 14:23:57;;;;;;;4.35;1.40;;;18.90;99.90;;;;;;6257333;22;20023;-87
2022/07/03 14:34:40;;;;;;;2.92;1.02;;;19.60;99.90;;;;;;6286732;22;20015;-86
2022/07/03 14:37:06;;;;;;;3.80;1.40;;;19.80;99.90;;;;;;6233593;22;20093;-84
2022/07/03 14:39:32;;;;;;;2.80;1.60;;;19.80;99.90;;;;;;6257624;22;20576;-84
2022/07/03 14:41:57;;;;;;;3.15;1.85;;;19.50;99.90;;;;;;6285541;22;20019;-87
2022/07/03 14:44:25;;;;;;;3.67;1.77;;;19.50;99.90;;;;;;6258321;22;20011;-85
2022/07/03 14:46:52;;;;;;;2.67;1.40;;;19.40;99.90;;;;;;6285809;22;20015;-87
2022/07/03 14:49:18;;;;;;;2.47;1.52;;;19.30;99.90;;;;;;6258833;22;20051;-88
2022/07/03 14:51:44;;;;;;;2.42;1.75;;;19.20;99.90;;;;;;6259396;22;20023;-87
2022/07/03 14:54:17;;;;;;;2.85;1.35;;;19.20;99.90;;;;;;6259936;22;20090;-88
2022/07/03 14:56:50;;;;;;;3.53;1.30;;;19.10;99.90;;;;;;6286617;22;20012;-87
2022/07/03 14:59:19;;;;;;;5.82;1.80;;;19.00;99.90;;;;;;6286754;22;20012;-85
2022/07/03 15:01:52;;;;;;;5.22;1.60;;;19.00;99.90;;;;;;6246195;22;20027;-87
2022/07/03 15:04:40;;;;;;;5.40;2.03;;;18.90;99.90;;;;;;6286519;22;20422;-85
2022/07/03 15:07:06;;;;;;;3.03;1.83;;;18.90;99.90;;;;;;6285413;22;20018;-87
2022/07/03 15:09:36;;;;;;;3.65;1.85;;;18.90;99.90;;;;;;6285122;22;20083;-87
2022/07/03 15:14:52;;;;;;;4.07;2.60;;;18.30;99.90;;;;;;6285680;22;20055;-85
2022/07/03 15:17:20;;;;;;;3.75;2.20;;;18.10;99.90;;;;;;6286350;22;20003;-85
2022/07/03 15:19:47;;;;;;;2.60;1.73;;;17.90;99.90;;;;;;6283377;22;20022;-85
2022/07/03 15:22:14;;;;;;;3.28;2.20;;;17.90;99.90;;;;;;6283401;22;20015;-85
2022/07/03 15:24:46;;;;;;;2.83;1.85;;;18.00;99.90;;;;;;6283379;22;20016;-86
2022/07/03 15:27:14;;;;;;;5.45;2.72;;;18.20;99.90;;;;;;6284378;22;20012;-86
2022/07/03 15:29:42;;;;;;;2.85;1.92;;;18.30;99.90;;;;;;6285666;22;20012;-82
2022/07/03 15:32:09;;;;;;;3.20;1.90;;;18.50;99.90;;;;;;6283315;22;20009;-84
2022/07/03 15:34:38;;;;;;;3.53;1.90;;;18.60;99.90;;;;;;6282633;22;20016;-82
2022/07/03 15:37:34;;;;;;;3.00;1.20;;;18.40;99.90;;;;;;6282443;22;20060;-84
2022/07/03 15:40:06;;;;;;;1.77;0.98;;;18.50;99.90;;;;;;6283133;22;20016;-85
2022/07/03 15:42:32;;;;;;;2.67;1.52;;;18.60;99.90;;;;;;6282259;22;20012;-84
2022/07/03 15:45:14;;;;;;;3.58;1.65;;;18.60;99.90;;;;;;6283540;22;20095;-84
2022/07/03 15:48:02;;;;;;;3.08;1.42;;;18.70;99.90;;;;;;6257687;22;20047;-85
2022/07/03 15:50:50;;;;;;;2.40;1.50;;;18.70;99.90;;;;;;6282073;22;20016;-83
2022/07/03 15:53:21;;;;;;;2.90;1.60;;;18.70;99.90;;;;;;6282972;22;20012;-88
2022/07/03 15:55:47;;;;;;;2.13;1.40;;;18.50;99.90;;;;;;6284420;22;20012;-86
2022/07/03 15:58:14;;;;;;;2.83;1.35;;;18.40;99.90;;;;;;6284257;22;20015;-85
2022/07/03 16:00:40;;;;;;;3.80;1.60;;;18.40;99.90;;;;;;6289131;22;19995;-86
2022/07/03 16:03:31;;;;;;;3.15;1.80;;;18.50;99.90;;;;;;6258196;22;20026;-86
2022/07/03 16:06:02;;;;;;;4.85;2.22;;;18.60;99.90;;;;;;6282981;22;20019;-84
2022/07/03 16:08:28;;;;;;;4.13;2.08;;;18.70;99.90;;;;;;6283392;22;20016;-83
2022/07/03 16:10:55;;;;;;;2.50;2.00;;;18.70;99.90;;;;;;6282993;22;20054;-84
2022/07/03 16:13:27;;;;;;;3.55;2.25;;;18.70;99.90;;;;;;6281727;22;20008;-83
2022/07/03 16:15:57;;;;;;;8.27;2.50;;;18.60;99.90;;;;;;6282534;22;20311;-87
2022/07/03 16:18:25;;;;;;;4.25;2.70;;;18.70;99.90;;;;;;6284629;22;20015;-85
2022/07/03 16:20:51;;;;;;;7.10;2.70;;;18.60;99.90;;;;;;6281221;22;20307;-81
2022/07/03 16:23:18;;;;;;;8.10;2.80;;;18.50;99.90;;;;;;6282597;22;20410;-84
2022/07/03 16:25:44;;;;;;;5.75;3.25;;;18.60;99.90;;;;;;6255150;22;20713;-84
2022/07/03 16:28:11;;;;;;;4.82;2.78;;;18.60;99.90;;;;;;6282445;22;20007;-84
2022/07/03 16:30:46;;;;;;;7.25;3.33;;;18.60;99.90;;;;;;6279699;22;20016;-78
2022/07/03 16:33:12;;;;;;;7.03;3.00;;;18.50;99.90;;;;;;6281699;22;20082;-85
2022/07/03 16:35:52;;;;;;;5.97;3.47;;;18.50;99.90;;;;;;6279580;22;20011;-82
2022/07/03 16:38:38;;;;;;;5.72;2.97;;;18.50;99.90;;;;;;6254584;22;20019;-85
2022/07/03 16:41:05;;;;;;;7.68;3.42;;;18.40;99.90;;;;;;6279494;22;20023;-84
2022/07/03 16:43:37;;;;;;;5.68;3.28;;;18.40;99.90;;;;;;6254078;22;20341;-83
2022/07/03 16:46:08;;;;;;;6.15;3.38;;;18.30;99.90;;;;;;6281675;22;20053;-82
2022/07/03 16:48:37;;;;;;;5.85;3.38;;;18.30;99.90;;;;;;6253565;22;20307;-83
2022/07/03 16:51:07;;;;;;;4.93;3.42;;;18.30;99.90;;;;;;6279479;22;20043;-85
2022/07/03 16:53:36;;;;;;;5.45;3.10;;;18.30;99.90;;;;;;6281435;22;20451;-83
2022/07/03 16:56:02;;;;;;;4.75;3.40;;;18.30;99.90;;;;;;6280630;22;20008;-83
2022/07/03 16:58:28;;;;;;;7.53;3.50;;;18.30;99.90;;;;;;6280960;22;20022;-82
2022/07/03 17:01:02;;;;;;;6.95;3.72;;;18.40;99.90;;;;;;6277784;22;20062;-82
2022/07/03 17:03:30;;;;;;;9.83;4.30;;;18.30;99.90;;;;;;6227729;22;20087;-83
2022/07/03 17:05:58;;;;;;;10.63;4.03;;;18.40;99.90;;;;;;6252552;22;20012;-81
2022/07/03 17:08:24;;;;;;;6.70;3.65;;;18.40;99.90;;;;;;6252273;22;20431;-82
2022/07/03 17:10:50;;;;;;;4.75;3.75;;;18.50;99.90;;;;;;6253443;22;20011;-83
2022/07/03 17:13:17;;;;;;;7.57;3.10;;;18.60;99.90;;;;;;6280616;22;20015;-83
2022/07/03 17:15:44;;;;;;;7.85;4.00;;;18.60;99.90;;;;;;6227681;22;20098;-84